sensor_id;sensor_type;location;lat;lon;timestamp;P1;durP1;ratioP1;P2;durP2;ratioP2
71910;SDS011;59783;52.232;5.170;2022-12-24T00:01:02;30.30;;;27.70;;
71910;SDS011;59783;52.232;5.170;2022-12-24T00:03:27;30.17;;;27.58;;
71910;SDS011;59783;52.232;5.170;2022-12-24T00:05:53;27.73;;;25.33;;
71910;SDS011;59783;52.232;5.170;2022-12-24T00:08:18;28.57;;;26.10;;
71910;SDS011;59783;52.232;5.170;2022-12-24T00:10:43;32.38;;;29.67;;
71910;SDS011;59783;52.232;5.170;2022-12-24T00:13:09;27.27;;;24.88;;
71910;SDS011;59783;52.232;5.170;2022-12-24T00:15:34;27.50;;;25.10;;
71910;SDS011;59783;52.232;5.170;2022-12-24T00:17:59;29.90;;;27.40;;
71910;SDS011;59783;52.232;5.170;2022-12-24T00:20:24;24.90;;;22.70;;
71910;SDS011;59783;52.232;5.170;2022-12-24T00:22:50;25.75;;;23.55;;
71910;SDS011;59783;52.232;5.170;2022-12-24T00:25:15;26.33;;;24.03;;
71910;SDS011;59783;52.232;5.170;2022-12-24T00:27:40;29.27;;;26.80;;
71910;SDS011;59783;52.232;5.170;2022-12-24T00:30:05;28.30;;;25.90;;
71910;SDS011;59783;52.232;5.170;2022-12-24T00:32:31;27.02;;;24.70;;
71910;SDS011;59783;52.232;5.170;2022-12-24T00:34:56;28.03;;;25.63;;
71910;SDS011;59783;52.232;5.170;2022-12-24T00:37:21;25.27;;;23.07;;
71910;SDS011;59783;52.232;5.170;2022-12-24T00:39:46;28.07;;;25.70;;
71910;SDS011;59783;52.232;5.170;2022-12-24T00:42:11;25.10;;;22.90;;
71910;SDS011;59783;52.232;5.170;2022-12-24T00:44:37;26.45;;;24.23;;
71910;SDS011;59783;52.232;5.170;2022-12-24T00:47:02;25.95;;;23.75;;
71910;SDS011;59783;52.232;5.170;2022-12-24T00:49:27;27.73;;;25.43;;
71910;SDS011;59783;52.232;5.170;2022-12-24T00:51:52;27.50;;;25.20;;
71910;SDS011;59783;52.232;5.170;2022-12-24T00:54:18;23.97;;;21.87;;
71910;SDS011;59783;52.232;5.170;2022-12-24T00:56:43;24.20;;;22.10;;
71910;SDS011;59783;52.232;5.170;2022-12-24T00:59:08;23.88;;;21.77;;
71910;SDS011;59783;52.232;5.170;2022-12-24T01:01:33;25.37;;;23.17;;
71910;SDS011;59783;52.232;5.170;2022-12-24T01:04:00;26.98;;;24.67;;
71910;SDS011;59783;52.232;5.170;2022-12-24T01:06:44;23.58;;;21.45;;
71910;SDS011;59783;52.232;5.170;2022-12-24T01:09:09;24.53;;;22.33;;
71910;SDS011;59783;52.232;5.170;2022-12-24T01:11:35;25.17;;;22.98;;
71910;SDS011;59783;52.232;5.170;2022-12-24T01:14:00;27.03;;;24.73;;
71910;SDS011;59783;52.232;5.170;2022-12-24T01:16:25;24.10;;;22.00;;
71910;SDS011;59783;52.232;5.170;2022-12-24T01:18:50;23.77;;;21.67;;
71910;SDS011;59783;52.232;5.170;2022-12-24T01:21:15;27.90;;;25.60;;
71910;SDS011;59783;52.232;5.170;2022-12-24T01:23:41;25.33;;;23.13;;
71910;SDS011;59783;52.232;5.170;2022-12-24T01:26:06;24.42;;;22.30;;
71910;SDS011;59783;52.232;5.170;2022-12-24T01:28:32;21.87;;;19.87;;
71910;SDS011;59783;52.232;5.170;2022-12-24T01:30:57;23.00;;;20.90;;
71910;SDS011;59783;52.232;5.170;2022-12-24T01:33:22;25.80;;;23.57;;
71910;SDS011;59783;52.232;5.170;2022-12-24T01:35:47;25.90;;;23.63;;
71910;SDS011;59783;52.232;5.170;2022-12-24T01:38:12;27.67;;;25.27;;
71910;SDS011;59783;52.232;5.170;2022-12-24T01:40:38;24.98;;;22.83;;
71910;SDS011;59783;52.232;5.170;2022-12-24T01:43:23;23.60;;;21.50;;
71910;SDS011;59783;52.232;5.170;2022-12-24T01:50:45;26.80;;;24.45;;
71910;SDS011;59783;52.232;5.170;2022-12-24T01:53:10;27.45;;;25.05;;
71910;SDS011;59783;52.232;5.170;2022-12-24T01:55:37;24.70;;;22.45;;
71910;SDS011;59783;52.232;5.170;2022-12-24T01:58:03;24.70;;;22.48;;
71910;SDS011;59783;52.232;5.170;2022-12-24T02:00:28;26.15;;;23.83;;
71910;SDS011;59783;52.232;5.170;2022-12-24T02:02:54;26.03;;;23.73;;
71910;SDS011;59783;52.232;5.170;2022-12-24T02:05:41;27.88;;;25.48;;
71910;SDS011;59783;52.232;5.170;2022-12-24T02:08:10;24.48;;;22.27;;
71910;SDS011;59783;52.232;5.170;2022-12-24T02:10:35;23.30;;;21.17;;
71910;SDS011;59783;52.232;5.170;2022-12-24T02:13:00;26.23;;;23.90;;
71910;SDS011;59783;52.232;5.170;2022-12-24T02:15:27;27.17;;;24.77;;
71910;SDS011;59783;52.232;5.170;2022-12-24T02:21:09;26.42;;;24.02;;
71910;SDS011;59783;52.232;5.170;2022-12-24T02:23:44;26.13;;;23.75;;
71910;SDS011;59783;52.232;5.170;2022-12-24T02:29:06;26.53;;;24.17;;
71910;SDS011;59783;52.232;5.170;2022-12-24T02:31:35;24.35;;;22.15;;
71910;SDS011;59783;52.232;5.170;2022-12-24T02:34:11;23.77;;;21.58;;
71910;SDS011;59783;52.232;5.170;2022-12-24T02:36:42;24.27;;;22.08;;
71910;SDS011;59783;52.232;5.170;2022-12-24T02:39:13;24.92;;;22.70;;
71910;SDS011;59783;52.232;5.170;2022-12-24T02:41:40;23.42;;;21.23;;
71910;SDS011;59783;52.232;5.170;2022-12-24T02:44:26;24.17;;;21.98;;
71910;SDS011;59783;52.232;5.170;2022-12-24T02:46:52;25.40;;;23.10;;
71910;SDS011;59783;52.232;5.170;2022-12-24T02:49:18;25.33;;;23.02;;
71910;SDS011;59783;52.232;5.170;2022-12-24T02:51:44;24.47;;;22.27;;
71910;SDS011;59783;52.232;5.170;2022-12-24T02:54:09;25.60;;;23.30;;
71910;SDS011;59783;52.232;5.170;2022-12-24T02:56:44;30.52;;;27.92;;
71910;SDS011;59783;52.232;5.170;2022-12-24T03:04:37;28.33;;;25.92;;
71910;SDS011;59783;52.232;5.170;2022-12-24T03:07:13;26.35;;;24.05;;
71910;SDS011;59783;52.232;5.170;2022-12-24T03:09:47;27.55;;;25.23;;
71910;SDS011;59783;52.232;5.170;2022-12-24T03:12:16;24.35;;;22.15;;
71910;SDS011;59783;52.232;5.170;2022-12-24T03:14:44;25.50;;;23.27;;
71910;SDS011;59783;52.232;5.170;2022-12-24T03:17:11;27.30;;;24.95;;
71910;SDS011;59783;52.232;5.170;2022-12-24T03:19:37;24.75;;;22.55;;
71910;SDS011;59783;52.232;5.170;2022-12-24T03:22:03;25.05;;;22.85;;
71910;SDS011;59783;52.232;5.170;2022-12-24T03:26:56;24.98;;;22.77;;
71910;SDS011;59783;52.232;5.170;2022-12-24T03:29:21;23.83;;;21.73;;
71910;SDS011;59783;52.232;5.170;2022-12-24T03:31:48;23.33;;;21.23;;
71910;SDS011;59783;52.232;5.170;2022-12-24T03:34:13;24.45;;;22.33;;
71910;SDS011;59783;52.232;5.170;2022-12-24T03:36:39;23.73;;;21.60;;
71910;SDS011;59783;52.232;5.170;2022-12-24T03:39:04;26.05;;;23.83;;
71910;SDS011;59783;52.232;5.170;2022-12-24T03:41:29;26.25;;;24.02;;
71910;SDS011;59783;52.232;5.170;2022-12-24T03:43:55;24.50;;;22.30;;
71910;SDS011;59783;52.232;5.170;2022-12-24T03:46:20;23.90;;;21.77;;
71910;SDS011;59783;52.232;5.170;2022-12-24T03:48:45;25.70;;;23.50;;
71910;SDS011;59783;52.232;5.170;2022-12-24T03:51:17;25.63;;;23.43;;
71910;SDS011;59783;52.232;5.170;2022-12-24T03:53:42;25.45;;;23.23;;
71910;SDS011;59783;52.232;5.170;2022-12-24T03:56:08;26.43;;;24.13;;
71910;SDS011;59783;52.232;5.170;2022-12-24T03:58:33;24.67;;;22.47;;
71910;SDS011;59783;52.232;5.170;2022-12-24T04:00:58;23.47;;;21.37;;
71910;SDS011;59783;52.232;5.170;2022-12-24T04:03:23;25.87;;;23.67;;
71910;SDS011;59783;52.232;5.170;2022-12-24T04:05:58;28.27;;;25.87;;
71910;SDS011;59783;52.232;5.170;2022-12-24T04:08:23;24.70;;;22.50;;
71910;SDS011;59783;52.232;5.170;2022-12-24T04:10:48;24.57;;;22.37;;
71910;SDS011;59783;52.232;5.170;2022-12-24T04:13:13;25.83;;;23.30;;
71910;SDS011;59783;52.232;5.170;2022-12-24T04:15:39;26.03;;;23.73;;
71910;SDS011;59783;52.232;5.170;2022-12-24T04:18:04;24.97;;;22.77;;
71910;SDS011;59783;52.232;5.170;2022-12-24T04:20:29;24.03;;;21.83;;
71910;SDS011;59783;52.232;5.170;2022-12-24T04:22:54;24.97;;;22.73;;
71910;SDS011;59783;52.232;5.170;2022-12-24T04:25:19;24.07;;;21.87;;
71910;SDS011;59783;52.232;5.170;2022-12-24T04:27:44;24.70;;;22.50;;
71910;SDS011;59783;52.232;5.170;2022-12-24T04:30:10;23.60;;;21.40;;
71910;SDS011;59783;52.232;5.170;2022-12-24T04:32:35;25.48;;;23.17;;
71910;SDS011;59783;52.232;5.170;2022-12-24T04:35:00;25.13;;;22.90;;
71910;SDS011;59783;52.232;5.170;2022-12-24T04:37:25;21.88;;;19.80;;
71910;SDS011;59783;52.232;5.170;2022-12-24T04:39:51;23.07;;;20.97;;
71910;SDS011;59783;52.232;5.170;2022-12-24T04:42:16;23.87;;;21.67;;
71910;SDS011;59783;52.232;5.170;2022-12-24T04:44:41;23.25;;;21.13;;
71910;SDS011;59783;52.232;5.170;2022-12-24T04:47:06;23.03;;;20.93;;
71910;SDS011;59783;52.232;5.170;2022-12-24T04:49:31;23.43;;;21.23;;
71910;SDS011;59783;52.232;5.170;2022-12-24T04:51:56;25.13;;;22.83;;
71910;SDS011;59783;52.232;5.170;2022-12-24T04:54:22;25.87;;;23.57;;
71910;SDS011;59783;52.232;5.170;2022-12-24T04:56:47;24.23;;;22.03;;
71910;SDS011;59783;52.232;5.170;2022-12-24T04:59:12;23.33;;;21.23;;
71910;SDS011;59783;52.232;5.170;2022-12-24T05:01:37;25.37;;;23.13;;
71910;SDS011;59783;52.232;5.170;2022-12-24T05:04:02;24.73;;;22.53;;
71910;SDS011;59783;52.232;5.170;2022-12-24T05:06:29;24.55;;;22.35;;
71910;SDS011;59783;52.232;5.170;2022-12-24T05:08:54;24.40;;;22.20;;
71910;SDS011;59783;52.232;5.170;2022-12-24T05:11:20;25.77;;;23.50;;
71910;SDS011;59783;52.232;5.170;2022-12-24T05:13:45;23.57;;;21.43;;
71910;SDS011;59783;52.232;5.170;2022-12-24T05:16:11;23.75;;;21.63;;
71910;SDS011;59783;52.232;5.170;2022-12-24T05:18:37;24.23;;;22.02;;
71910;SDS011;59783;52.232;5.170;2022-12-24T05:21:06;24.73;;;22.53;;
71910;SDS011;59783;52.232;5.170;2022-12-24T05:23:31;22.77;;;20.67;;
71910;SDS011;59783;52.232;5.170;2022-12-24T05:26:16;24.20;;;22.05;;
71910;SDS011;59783;52.232;5.170;2022-12-24T05:28:48;25.35;;;23.15;;
71910;SDS011;59783;52.232;5.170;2022-12-24T05:31:13;25.40;;;23.17;;
71910;SDS011;59783;52.232;5.170;2022-12-24T05:33:38;23.03;;;20.93;;
71910;SDS011;59783;52.232;5.170;2022-12-24T05:36:03;22.93;;;20.83;;
71910;SDS011;59783;52.232;5.170;2022-12-24T05:38:29;24.25;;;22.13;;
71910;SDS011;59783;52.232;5.170;2022-12-24T05:40:54;22.73;;;20.65;;
71910;SDS011;59783;52.232;5.170;2022-12-24T05:43:19;23.10;;;21.00;;
71910;SDS011;59783;52.232;5.170;2022-12-24T05:45:44;23.70;;;21.60;;
71910;SDS011;59783;52.232;5.170;2022-12-24T05:48:10;23.30;;;21.20;;
71910;SDS011;59783;52.232;5.170;2022-12-24T05:50:37;30.15;;;27.58;;
71910;SDS011;59783;52.232;5.170;2022-12-24T05:53:02;29.92;;;27.38;;
71910;SDS011;59783;52.232;5.170;2022-12-24T05:55:27;28.20;;;25.70;;
71910;SDS011;59783;52.232;5.170;2022-12-24T05:57:53;29.60;;;27.00;;
71910;SDS011;59783;52.232;5.170;2022-12-24T06:00:18;28.27;;;25.77;;
71910;SDS011;59783;52.232;5.170;2022-12-24T06:02:43;27.35;;;24.95;;
71910;SDS011;59783;52.232;5.170;2022-12-24T06:05:08;28.83;;;26.33;;
71910;SDS011;59783;52.232;5.170;2022-12-24T06:07:34;29.83;;;27.30;;
71910;SDS011;59783;52.232;5.170;2022-12-24T06:09:59;28.83;;;26.23;;
71910;SDS011;59783;52.232;5.170;2022-12-24T06:12:24;27.85;;;25.42;;
71910;SDS011;59783;52.232;5.170;2022-12-24T06:14:49;28.27;;;25.77;;
71910;SDS011;59783;52.232;5.170;2022-12-24T06:17:14;29.67;;;27.07;;
71910;SDS011;59783;52.232;5.170;2022-12-24T06:19:40;28.02;;;25.52;;
71910;SDS011;59783;52.232;5.170;2022-12-24T06:22:05;29.27;;;26.77;;
71910;SDS011;59783;52.232;5.170;2022-12-24T06:24:30;29.57;;;27.07;;
71910;SDS011;59783;52.232;5.170;2022-12-24T06:26:55;31.47;;;28.77;;
71910;SDS011;59783;52.232;5.170;2022-12-24T06:29:20;27.40;;;25.00;;
71910;SDS011;59783;52.232;5.170;2022-12-24T06:31:46;28.10;;;25.60;;
71910;SDS011;59783;52.232;5.170;2022-12-24T06:34:11;28.57;;;26.07;;
71910;SDS011;59783;52.232;5.170;2022-12-24T06:36:36;27.17;;;24.73;;
71910;SDS011;59783;52.232;5.170;2022-12-24T06:39:01;29.07;;;26.57;;
71910;SDS011;59783;52.232;5.170;2022-12-24T06:41:26;27.30;;;24.90;;
71910;SDS011;59783;52.232;5.170;2022-12-24T06:43:52;28.20;;;25.70;;
71910;SDS011;59783;52.232;5.170;2022-12-24T06:46:17;27.58;;;25.17;;
71910;SDS011;59783;52.232;5.170;2022-12-24T06:48:43;28.70;;;26.17;;
71910;SDS011;59783;52.232;5.170;2022-12-24T06:51:09;31.35;;;28.65;;
71910;SDS011;59783;52.232;5.170;2022-12-24T06:53:34;26.90;;;24.50;;
71910;SDS011;59783;52.232;5.170;2022-12-24T06:56:00;26.70;;;24.27;;
71910;SDS011;59783;52.232;5.170;2022-12-24T06:58:26;28.00;;;25.58;;
71910;SDS011;59783;52.232;5.170;2022-12-24T07:00:51;27.60;;;25.20;;
71910;SDS011;59783;52.232;5.170;2022-12-24T07:03:16;28.33;;;25.87;;
71910;SDS011;59783;52.232;5.170;2022-12-24T07:05:41;27.93;;;25.53;;
71910;SDS011;59783;52.232;5.170;2022-12-24T07:08:07;26.40;;;24.05;;
71910;SDS011;59783;52.232;5.170;2022-12-24T07:10:33;25.38;;;23.08;;
71910;SDS011;59783;52.232;5.170;2022-12-24T07:12:58;28.77;;;26.27;;
71910;SDS011;59783;52.232;5.170;2022-12-24T07:15:23;26.30;;;23.90;;
71910;SDS011;59783;52.232;5.170;2022-12-24T07:17:48;27.57;;;25.17;;
71910;SDS011;59783;52.232;5.170;2022-12-24T07:20:13;26.87;;;24.47;;
71910;SDS011;59783;52.232;5.170;2022-12-24T07:22:39;25.38;;;23.08;;
71910;SDS011;59783;52.232;5.170;2022-12-24T07:25:04;25.93;;;23.53;;
71910;SDS011;59783;52.232;5.170;2022-12-24T07:27:29;28.02;;;25.60;;
71910;SDS011;59783;52.232;5.170;2022-12-24T07:29:55;24.90;;;22.63;;
71910;SDS011;59783;52.232;5.170;2022-12-24T07:32:20;24.93;;;22.63;;
71910;SDS011;59783;52.232;5.170;2022-12-24T07:34:45;25.27;;;23.03;;
71910;SDS011;59783;52.232;5.170;2022-12-24T07:37:10;24.30;;;22.10;;
71910;SDS011;59783;52.232;5.170;2022-12-24T07:39:35;26.93;;;24.53;;
71910;SDS011;59783;52.232;5.170;2022-12-24T07:42:01;25.83;;;23.53;;
71910;SDS011;59783;52.232;5.170;2022-12-24T07:44:26;24.17;;;21.97;;
71910;SDS011;59783;52.232;5.170;2022-12-24T07:46:51;25.33;;;23.03;;
71910;SDS011;59783;52.232;5.170;2022-12-24T07:49:16;25.43;;;23.13;;
71910;SDS011;59783;52.232;5.170;2022-12-24T07:51:41;24.47;;;22.20;;
71910;SDS011;59783;52.232;5.170;2022-12-24T07:54:06;25.10;;;22.80;;
71910;SDS011;59783;52.232;5.170;2022-12-24T07:56:32;26.73;;;24.33;;
71910;SDS011;59783;52.232;5.170;2022-12-24T07:58:57;24.40;;;22.17;;
71910;SDS011;59783;52.232;5.170;2022-12-24T08:01:22;24.57;;;22.33;;
71910;SDS011;59783;52.232;5.170;2022-12-24T08:03:47;22.97;;;20.87;;
71910;SDS011;59783;52.232;5.170;2022-12-24T08:06:15;24.40;;;22.15;;
71910;SDS011;59783;52.232;5.170;2022-12-24T08:08:40;22.95;;;20.85;;
71910;SDS011;59783;52.232;5.170;2022-12-24T08:11:06;24.47;;;22.17;;
71910;SDS011;59783;52.232;5.170;2022-12-24T08:13:31;24.43;;;22.13;;
71910;SDS011;59783;52.232;5.170;2022-12-24T08:15:57;25.17;;;22.88;;
71910;SDS011;59783;52.232;5.170;2022-12-24T08:18:22;23.33;;;21.13;;
71910;SDS011;59783;52.232;5.170;2022-12-24T08:20:47;25.83;;;23.53;;
71910;SDS011;59783;52.232;5.170;2022-12-24T08:23:12;25.17;;;22.87;;
71910;SDS011;59783;52.232;5.170;2022-12-24T08:25:40;25.48;;;23.17;;
71910;SDS011;59783;52.232;5.170;2022-12-24T08:28:06;25.77;;;23.48;;
71910;SDS011;59783;52.232;5.170;2022-12-24T08:30:31;23.63;;;21.43;;
71910;SDS011;59783;52.232;5.170;2022-12-24T08:32:56;24.60;;;22.38;;
71910;SDS011;59783;52.232;5.170;2022-12-24T08:35:22;26.13;;;23.73;;
71910;SDS011;59783;52.232;5.170;2022-12-24T08:37:47;25.20;;;22.97;;
71910;SDS011;59783;52.232;5.170;2022-12-24T08:40:12;23.27;;;21.07;;
71910;SDS011;59783;52.232;5.170;2022-12-24T08:42:37;23.80;;;21.60;;
71910;SDS011;59783;52.232;5.170;2022-12-24T08:45:02;25.27;;;22.97;;
71910;SDS011;59783;52.232;5.170;2022-12-24T08:47:28;24.65;;;22.35;;
71910;SDS011;59783;52.232;5.170;2022-12-24T08:49:53;23.93;;;21.73;;
71910;SDS011;59783;52.232;5.170;2022-12-24T08:52:18;24.80;;;22.50;;
71910;SDS011;59783;52.232;5.170;2022-12-24T08:54:43;23.90;;;21.70;;
71910;SDS011;59783;52.232;5.170;2022-12-24T08:57:08;24.73;;;22.53;;
71910;SDS011;59783;52.232;5.170;2022-12-24T08:59:34;23.43;;;21.33;;
71910;SDS011;59783;52.232;5.170;2022-12-24T09:01:59;24.83;;;22.63;;
71910;SDS011;59783;52.232;5.170;2022-12-24T09:04:25;24.30;;;22.10;;
71910;SDS011;59783;52.232;5.170;2022-12-24T09:06:50;26.43;;;24.13;;
71910;SDS011;59783;52.232;5.170;2022-12-24T09:09:15;24.73;;;22.53;;
71910;SDS011;59783;52.232;5.170;2022-12-24T09:11:41;25.40;;;23.20;;
71910;SDS011;59783;52.232;5.170;2022-12-24T09:14:06;24.87;;;22.67;;
71910;SDS011;59783;52.232;5.170;2022-12-24T09:16:31;24.27;;;22.07;;
71910;SDS011;59783;52.232;5.170;2022-12-24T09:18:57;25.70;;;23.43;;
71910;SDS011;59783;52.232;5.170;2022-12-24T09:21:22;24.85;;;22.63;;
71910;SDS011;59783;52.232;5.170;2022-12-24T09:23:47;24.85;;;22.65;;
71910;SDS011;59783;52.232;5.170;2022-12-24T09:26:14;25.65;;;23.35;;
71910;SDS011;59783;52.232;5.170;2022-12-24T09:28:39;28.50;;;26.08;;
71910;SDS011;59783;52.232;5.170;2022-12-24T09:31:05;24.90;;;22.70;;
71910;SDS011;59783;52.232;5.170;2022-12-24T09:33:31;24.25;;;22.08;;
71910;SDS011;59783;52.232;5.170;2022-12-24T09:35:57;26.48;;;24.17;;
71910;SDS011;59783;52.232;5.170;2022-12-24T09:38:22;25.25;;;23.05;;
71910;SDS011;59783;52.232;5.170;2022-12-24T09:40:48;23.45;;;21.35;;
71910;SDS011;59783;52.232;5.170;2022-12-24T09:43:17;25.13;;;22.90;;
71910;SDS011;59783;52.232;5.170;2022-12-24T09:48:19;27.95;;;25.55;;
71910;SDS011;59783;52.232;5.170;2022-12-24T09:50:49;23.92;;;21.83;;
71910;SDS011;59783;52.232;5.170;2022-12-24T09:53:18;24.40;;;22.20;;
71910;SDS011;59783;52.232;5.170;2022-12-24T09:55:55;26.08;;;23.77;;
71910;SDS011;59783;52.232;5.170;2022-12-24T09:58:29;27.20;;;24.90;;
71910;SDS011;59783;52.232;5.170;2022-12-24T10:00:57;23.08;;;20.98;;
71910;SDS011;59783;52.232;5.170;2022-12-24T10:03:22;23.90;;;21.77;;
71910;SDS011;59783;52.232;5.170;2022-12-24T10:08:37;22.52;;;20.52;;
71910;SDS011;59783;52.232;5.170;2022-12-24T10:11:05;23.35;;;21.33;;
71910;SDS011;59783;52.232;5.170;2022-12-24T10:13:35;24.02;;;21.92;;
71910;SDS011;59783;52.232;5.170;2022-12-24T10:18:42;23.75;;;21.65;;
71910;SDS011;59783;52.232;5.170;2022-12-24T10:21:11;23.45;;;21.35;;
71910;SDS011;59783;52.232;5.170;2022-12-24T10:28:44;22.97;;;20.87;;
71910;SDS011;59783;52.232;5.170;2022-12-24T10:31:10;23.67;;;21.58;;
71910;SDS011;59783;52.232;5.170;2022-12-24T10:33:43;22.27;;;20.27;;
71910;SDS011;59783;52.232;5.170;2022-12-24T10:36:15;23.50;;;21.40;;
71910;SDS011;59783;52.232;5.170;2022-12-24T10:38:42;23.95;;;21.85;;
71910;SDS011;59783;52.232;5.170;2022-12-24T10:41:07;24.48;;;22.35;;
71910;SDS011;59783;52.232;5.170;2022-12-24T10:43:33;22.52;;;20.52;;
71910;SDS011;59783;52.232;5.170;2022-12-24T10:46:05;24.35;;;22.23;;
71910;SDS011;59783;52.232;5.170;2022-12-24T10:48:32;21.30;;;19.38;;
71910;SDS011;59783;52.232;5.170;2022-12-24T10:51:04;21.50;;;19.60;;
71910;SDS011;59783;52.232;5.170;2022-12-24T10:53:33;24.80;;;22.67;;
71910;SDS011;59783;52.232;5.170;2022-12-24T10:56:02;22.48;;;20.38;;
71910;SDS011;59783;52.232;5.170;2022-12-24T10:58:27;21.65;;;19.70;;
71910;SDS011;59783;52.232;5.170;2022-12-24T11:00:52;22.35;;;20.35;;
71910;SDS011;59783;52.232;5.170;2022-12-24T11:05:43;22.83;;;20.83;;
71910;SDS011;59783;52.232;5.170;2022-12-24T11:13:02;21.30;;;19.30;;
71910;SDS011;59783;52.232;5.170;2022-12-24T11:15:31;21.17;;;19.27;;
71910;SDS011;59783;52.232;5.170;2022-12-24T11:17:59;22.83;;;20.83;;
71910;SDS011;59783;52.232;5.170;2022-12-24T11:20:28;22.60;;;20.60;;
71910;SDS011;59783;52.232;5.170;2022-12-24T11:22:54;20.92;;;19.05;;
71910;SDS011;59783;52.232;5.170;2022-12-24T11:25:21;23.60;;;21.50;;
71910;SDS011;59783;52.232;5.170;2022-12-24T11:27:48;22.90;;;20.90;;
71910;SDS011;59783;52.232;5.170;2022-12-24T11:32:41;21.02;;;19.13;;
71910;SDS011;59783;52.232;5.170;2022-12-24T11:35:07;20.10;;;18.25;;
71910;SDS011;59783;52.232;5.170;2022-12-24T11:37:32;21.60;;;19.60;;
71910;SDS011;59783;52.232;5.170;2022-12-24T11:40:01;21.33;;;19.38;;
71910;SDS011;59783;52.232;5.170;2022-12-24T11:42:33;20.20;;;18.35;;
71910;SDS011;59783;52.232;5.170;2022-12-24T11:45:01;21.52;;;19.52;;
71910;SDS011;59783;52.232;5.170;2022-12-24T11:47:34;22.55;;;20.45;;
71910;SDS011;59783;52.232;5.170;2022-12-24T11:50:17;22.48;;;20.45;;
71910;SDS011;59783;52.232;5.170;2022-12-24T11:52:42;22.25;;;20.25;;
71910;SDS011;59783;52.232;5.170;2022-12-24T11:55:13;22.17;;;20.15;;
71910;SDS011;59783;52.232;5.170;2022-12-24T11:57:43;21.23;;;19.23;;
71910;SDS011;59783;52.232;5.170;2022-12-24T12:00:10;21.75;;;19.75;;
71910;SDS011;59783;52.232;5.170;2022-12-24T12:02:37;20.58;;;18.67;;
71910;SDS011;59783;52.232;5.170;2022-12-24T12:05:14;21.70;;;19.67;;
71910;SDS011;59783;52.232;5.170;2022-12-24T12:07:40;21.60;;;19.67;;
71910;SDS011;59783;52.232;5.170;2022-12-24T12:10:10;22.30;;;20.20;;
71910;SDS011;59783;52.232;5.170;2022-12-24T12:12:43;23.27;;;21.17;;
71910;SDS011;59783;52.232;5.170;2022-12-24T12:15:14;24.52;;;22.40;;
71910;SDS011;59783;52.232;5.170;2022-12-24T12:17:45;25.25;;;23.02;;
71910;SDS011;59783;52.232;5.170;2022-12-24T12:22:49;23.15;;;21.05;;
71910;SDS011;59783;52.232;5.170;2022-12-24T12:25:21;23.63;;;21.52;;
71910;SDS011;59783;52.232;5.170;2022-12-24T12:27:48;21.50;;;19.48;;
71910;SDS011;59783;52.232;5.170;2022-12-24T12:30:16;23.27;;;21.15;;
71910;SDS011;59783;52.232;5.170;2022-12-24T12:32:50;23.77;;;21.67;;
71910;SDS011;59783;52.232;5.170;2022-12-24T12:35:22;24.33;;;22.23;;
71910;SDS011;59783;52.232;5.170;2022-12-24T12:37:54;22.33;;;20.33;;
71910;SDS011;59783;52.232;5.170;2022-12-24T12:40:19;22.42;;;20.40;;
71910;SDS011;59783;52.232;5.170;2022-12-24T12:43:03;23.33;;;21.23;;
71910;SDS011;59783;52.232;5.170;2022-12-24T12:58:12;20.15;;;18.25;;
71910;SDS011;59783;52.232;5.170;2022-12-24T13:00:39;20.67;;;18.77;;
71910;SDS011;59783;52.232;5.170;2022-12-24T13:18:38;23.40;;;21.30;;
71910;SDS011;59783;52.232;5.170;2022-12-24T13:21:13;22.98;;;20.88;;
71910;SDS011;59783;52.232;5.170;2022-12-24T13:23:39;22.00;;;19.92;;
71910;SDS011;59783;52.232;5.170;2022-12-24T13:26:09;24.07;;;21.87;;
71910;SDS011;59783;52.232;5.170;2022-12-24T13:28:35;21.50;;;19.50;;
71910;SDS011;59783;52.232;5.170;2022-12-24T13:36:01;24.48;;;22.33;;
71910;SDS011;59783;52.232;5.170;2022-12-24T13:38:30;25.58;;;23.35;;
71910;SDS011;59783;52.232;5.170;2022-12-24T13:40:55;21.63;;;19.63;;
71910;SDS011;59783;52.232;5.170;2022-12-24T13:54:31;24.25;;;22.15;;
71910;SDS011;59783;52.232;5.170;2022-12-24T13:56:57;23.67;;;21.60;;
71910;SDS011;59783;52.232;5.170;2022-12-24T13:59:25;25.27;;;23.08;;
71910;SDS011;59783;52.232;5.170;2022-12-24T14:01:51;23.67;;;21.58;;
71910;SDS011;59783;52.232;5.170;2022-12-24T14:04:21;25.65;;;23.45;;
71910;SDS011;59783;52.232;5.170;2022-12-24T14:06:48;20.90;;;19.00;;
71910;SDS011;59783;52.232;5.170;2022-12-24T14:09:14;21.83;;;19.83;;
71910;SDS011;59783;52.232;5.170;2022-12-24T14:16:51;23.15;;;21.05;;
71910;SDS011;59783;52.232;5.170;2022-12-24T14:19:18;23.73;;;21.63;;
71910;SDS011;59783;52.232;5.170;2022-12-24T14:21:48;23.55;;;21.45;;
71910;SDS011;59783;52.232;5.170;2022-12-24T14:24:26;21.70;;;19.73;;
71910;SDS011;59783;52.232;5.170;2022-12-24T14:26:59;26.70;;;24.40;;
71910;SDS011;59783;52.232;5.170;2022-12-24T14:29:32;24.13;;;21.92;;
71910;SDS011;59783;52.232;5.170;2022-12-24T14:31:59;24.98;;;22.77;;
71910;SDS011;59783;52.232;5.170;2022-12-24T14:34:28;24.83;;;22.63;;
71910;SDS011;59783;52.232;5.170;2022-12-24T14:36:54;22.88;;;20.77;;
71910;SDS011;59783;52.232;5.170;2022-12-24T14:39:21;23.52;;;21.42;;
71910;SDS011;59783;52.232;5.170;2022-12-24T14:44:35;21.80;;;19.80;;
71910;SDS011;59783;52.232;5.170;2022-12-24T14:47:11;22.85;;;20.75;;
71910;SDS011;59783;52.232;5.170;2022-12-24T14:49:43;22.63;;;20.52;;
71910;SDS011;59783;52.232;5.170;2022-12-24T14:52:34;21.88;;;19.85;;
71910;SDS011;59783;52.232;5.170;2022-12-24T14:55:22;23.20;;;21.08;;
71910;SDS011;59783;52.232;5.170;2022-12-24T14:57:45;21.67;;;19.67;;
71910;SDS011;59783;52.232;5.170;2022-12-24T15:00:18;21.37;;;19.33;;
71910;SDS011;59783;52.232;5.170;2022-12-24T15:02:48;24.13;;;21.92;;
71910;SDS011;59783;52.232;5.170;2022-12-24T15:05:15;22.30;;;20.25;;
71910;SDS011;59783;52.232;5.170;2022-12-24T15:07:45;23.10;;;20.98;;
71910;SDS011;59783;52.232;5.170;2022-12-24T15:12:55;20.90;;;18.90;;
71910;SDS011;59783;52.232;5.170;2022-12-24T15:15:21;21.75;;;19.65;;
71910;SDS011;59783;52.232;5.170;2022-12-24T15:17:46;21.10;;;19.00;;
71910;SDS011;59783;52.232;5.170;2022-12-24T15:20:19;20.80;;;18.70;;
71910;SDS011;59783;52.232;5.170;2022-12-24T15:22:45;22.13;;;19.92;;
71910;SDS011;59783;52.232;5.170;2022-12-24T15:27:43;22.13;;;20.02;;
71910;SDS011;59783;52.232;5.170;2022-12-24T15:30:13;21.80;;;19.70;;
71910;SDS011;59783;52.232;5.170;2022-12-24T15:32:39;22.65;;;20.45;;
71910;SDS011;59783;52.232;5.170;2022-12-24T15:35:04;22.77;;;20.60;;
71910;SDS011;59783;52.232;5.170;2022-12-24T15:37:30;21.58;;;19.48;;
71910;SDS011;59783;52.232;5.170;2022-12-24T15:40:07;21.85;;;19.75;;
71910;SDS011;59783;52.232;5.170;2022-12-24T15:42:33;22.10;;;19.92;;
71910;SDS011;59783;52.232;5.170;2022-12-24T15:45:03;22.63;;;20.50;;
71910;SDS011;59783;52.232;5.170;2022-12-24T15:47:43;22.95;;;20.75;;
71910;SDS011;59783;52.232;5.170;2022-12-24T15:50:13;23.08;;;20.88;;
71910;SDS011;59783;52.232;5.170;2022-12-24T15:52:40;22.83;;;20.63;;
71910;SDS011;59783;52.232;5.170;2022-12-24T15:55:22;21.33;;;19.23;;
71910;SDS011;59783;52.232;5.170;2022-12-24T15:57:48;22.38;;;20.25;;
71910;SDS011;59783;52.232;5.170;2022-12-24T16:00:21;22.10;;;20.00;;
71910;SDS011;59783;52.232;5.170;2022-12-24T16:02:46;22.23;;;20.13;;